Time;durP1;ratioP1;P1;durP2;ratioP2;P2;SDS_P1;SDS_P2;PMS_P1;PMS_P2;Temp;Humidity;BMP_temperature;BMP_pressure;BME280_temperature;BME280_humidity;BME280_pressure;Samples;Min_cycle;Max_cycle;Signal;HPM_P1;HPM_P2
2023/08/07 00:01:41;;;;;;;2.60;1.30;;;;;;;13.26;67.28;96014.94;5089124;28;20239;-68
2023/08/07 00:04:06;;;;;;;6.40;1.50;;;;;;;13.30;67.33;96015.66;5089422;28;20182;-69
2023/08/07 00:06:32;;;;;;;2.37;1.60;;;;;;;13.30;67.78;96013.03;5088349;28;20668;-69
2023/08/07 00:08:57;;;;;;;2.50;1.30;;;;;;;13.33;68.17;96013.66;5087786;28;20197;-69
2023/08/07 00:11:22;;;;;;;3.57;1.47;;;;;;;13.25;68.28;96018.53;5085395;28;20209;-69
2023/08/07 00:13:48;;;;;;;2.03;1.23;;;;;;;13.30;68.30;96020.94;5067535;28;20169;-69
2023/08/07 00:16:13;;;;;;;1.67;1.30;;;;;;;13.24;68.52;96016.81;5067529;28;20192;-68
2023/08/07 00:18:38;;;;;;;2.80;1.50;;;;;;;13.18;67.67;96014.56;5067626;28;20224;-68
2023/08/07 00:21:04;;;;;;;5.80;1.53;;;;;;;13.17;68.66;96017.28;5067081;28;20170;-68
2023/08/07 00:23:29;;;;;;;2.77;1.20;;;;;;;13.20;67.47;96012.66;5067297;28;21038;-69
2023/08/07 00:25:54;;;;;;;2.10;1.40;;;;;;;13.16;67.63;96020.84;5067226;28;20166;-68
2023/08/07 00:28:20;;;;;;;2.57;1.50;;;;;;;13.29;67.33;96020.06;5067234;28;20601;-69
2023/08/07 00:30:45;;;;;;;1.50;1.23;;;;;;;13.27;67.74;96021.06;5066877;28;20372;-68
2023/08/07 00:33:11;;;;;;;1.80;1.30;;;;;;;13.24;67.10;96016.81;5068018;28;20170;-69
2023/08/07 00:35:36;;;;;;;5.33;1.10;;;;;;;13.27;67.46;96021.94;5067059;28;20231;-70
2023/08/07 00:38:01;;;;;;;2.50;1.50;;;;;;;13.28;67.37;96015.75;5067120;28;20251;-68
2023/08/07 00:40:27;;;;;;;7.33;2.00;;;;;;;13.24;66.67;96010.72;5066722;28;20170;-68
2023/08/07 00:42:52;;;;;;;4.43;1.60;;;;;;;13.20;66.94;96017.94;5067341;28;20245;-69
2023/08/07 00:45:18;;;;;;;4.37;1.40;;;;;;;13.22;67.03;96012.59;5067207;28;20169;-69
2023/08/07 00:47:43;;;;;;;4.27;1.20;;;;;;;13.14;66.28;96015.69;5066261;28;20221;-68
2023/08/07 00:50:10;;;;;;;3.53;3.23;;;;;;;13.10;66.52;96012.38;5066634;28;20225;-69
2023/08/07 00:52:36;;;;;;;1.70;1.50;;;;;;;13.16;66.16;96008.56;5067141;28;20674;-69
2023/08/07 00:55:02;;;;;;;3.03;1.60;;;;;;;13.23;65.88;96007.25;5067112;28;20432;-69
2023/08/07 00:57:28;;;;;;;1.83;1.43;;;;;;;13.19;66.68;96020.69;5068520;28;20186;-69
2023/08/07 00:59:53;;;;;;;1.73;1.23;;;;;;;13.22;65.93;96015.22;5070968;28;20933;-69
2023/08/07 01:02:19;;;;;;;2.53;1.30;;;;;;;13.20;65.42;96025.00;5071113;28;21044;-69
2023/08/07 01:04:44;;;;;;;3.07;1.30;;;;;;;13.20;65.66;96017.94;5070750;28;20257;-69
2023/08/07 01:07:10;;;;;;;3.40;1.70;;;;;;;13.17;65.63;96015.50;5069330;28;20232;-69
2023/08/07 01:09:35;;;;;;;4.97;1.77;;;;;;;13.18;65.62;96017.22;5069330;28;20182;-68
2023/08/07 01:12:10;;;;;;;3.93;1.70;;;;;;;13.08;65.69;96024.78;5076674;28;21000;-68
2023/08/07 01:14:40;;;;;;;2.43;1.50;;;;;;;13.11;65.44;96024.63;5089387;28;20172;-67
2023/08/07 01:17:15;;;;;;;5.03;1.57;;;;;;;13.09;65.02;96023.88;5088738;28;21007;-69
2023/08/07 01:19:41;;;;;;;3.50;1.30;;;;;;;13.09;64.97;96025.66;5088276;28;20518;-70
2023/08/07 01:22:11;;;;;;;12.83;2.53;;;;;;;13.06;64.97;96025.81;5088024;28;20953;-69
2023/08/07 01:24:38;;;;;;;5.97;1.60;;;;;;;13.06;64.98;96020.56;5088683;28;20411;-72
2023/08/07 01:27:18;;;;;;;2.43;1.50;;;;;;;13.13;64.24;96022.75;5087933;28;20488;-69
2023/08/07 01:30:07;;;;;;;2.60;1.37;;;;;;;13.07;64.39;96025.75;5087609;28;21100;-69
2023/08/07 01:32:43;;;;;;;2.50;1.30;;;;;;;13.01;64.32;96020.84;5087605;28;20494;-68
2023/08/07 01:35:12;;;;;;;2.57;1.70;;;;;;;13.01;64.20;96028.72;5087438;28;20430;-71
2023/08/07 01:37:42;;;;;;;2.03;1.43;;;;;;;13.13;64.87;96030.66;5086971;28;20572;-68
2023/08/07 01:40:10;;;;;;;2.20;1.40;;;;;;;13.06;64.67;96031.09;5086778;28;20531;-68
2023/08/07 01:42:36;;;;;;;4.53;2.40;;;;;;;13.06;64.51;96025.81;5090250;28;20414;-67
2023/08/07 01:45:02;;;;;;;4.23;1.53;;;;;;;13.01;65.12;96030.53;5089601;28;20419;-69
2023/08/07 01:47:27;;;;;;;3.77;1.57;;;;;;;13.04;64.64;96031.22;5086678;28;20446;-69
2023/08/07 01:49:53;;;;;;;1.93;1.50;;;;;;;13.04;65.24;96028.56;5086259;28;20193;-69
2023/08/07 01:52:20;;;;;;;6.10;2.30;;;;;;;13.02;65.17;96026.97;5086567;28;20173;-68
2023/08/07 01:54:45;;;;;;;4.50;1.57;;;;;;;13.01;64.92;96027.91;5086562;28;20200;-67
2023/08/07 01:57:11;;;;;;;8.40;2.10;;;;;;;13.12;65.13;96036.84;5086676;28;21270;-72
2023/08/07 01:59:36;;;;;;;2.73;1.60;;;;;;;13.09;64.48;96028.31;5088332;28;20185;-67
2023/08/07 02:02:01;;;;;;;3.07;1.67;;;;;;;13.03;65.08;96029.50;5090482;28;20823;-71
2023/08/07 02:04:27;;;;;;;2.30;1.70;;;;;;;13.01;64.94;96041.06;5090423;28;20184;-71
2023/08/07 02:06:52;;;;;;;3.80;1.50;;;;;;;12.93;65.85;96031.84;5090167;28;20197;-67
2023/08/07 02:09:17;;;;;;;2.73;1.43;;;;;;;12.95;65.64;96030.91;5089797;28;20209;-66
2023/08/07 02:11:44;;;;;;;5.97;2.10;;;;;;;12.95;65.43;96033.53;5084823;28;20205;-69
2023/08/07 02:14:09;;;;;;;3.37;1.57;;;;;;;12.96;64.95;96035.22;5069698;28;20185;-71
2023/08/07 02:16:36;;;;;;;11.60;1.97;;;;;;;12.92;65.59;96035.41;5069774;28;20432;-69
2023/08/07 02:19:01;;;;;;;2.60;1.73;;;;;;;12.94;65.62;96037.94;5069413;28;20228;-70
2023/08/07 02:21:26;;;;;;;5.53;2.37;;;;;;;13.03;66.02;96039.19;5069774;28;21061;-72
2023/08/07 02:23:52;;;;;;;2.90;1.47;;;;;;;12.96;65.74;96037.84;5069727;28;20645;-70
2023/08/07 02:26:17;;;;;;;8.37;1.70;;;;;;;12.85;65.69;96041.97;5069352;28;20174;-69
2023/08/07 02:28:42;;;;;;;2.90;1.27;;;;;;;12.83;65.56;96043.84;5069627;28;20249;-69
2023/08/07 02:31:08;;;;;;;2.77;1.80;;;;;;;12.89;65.19;96042.63;5069827;28;20587;-70
2023/08/07 02:33:33;;;;;;;12.17;2.57;;;;;;;12.90;65.11;96045.19;5069959;28;20193;-68
2023/08/07 02:35:58;;;;;;;3.13;1.50;;;;;;;12.81;64.95;96051.00;5069709;28;20538;-68
2023/08/07 02:38:25;;;;;;;6.70;1.70;;;;;;;12.87;65.34;96055.03;5069616;28;20229;-70
2023/08/07 02:40:50;;;;;;;4.40;1.80;;;;;;;12.85;65.31;96052.53;5069086;28;20213;-70
2023/08/07 02:43:16;;;;;;;3.23;1.73;;;;;;;12.86;65.50;96056.84;5071027;28;20440;-70
2023/08/07 02:45:41;;;;;;;3.10;1.77;;;;;;;12.86;65.41;96059.47;5078106;28;20174;-69
2023/08/07 02:48:06;;;;;;;6.50;2.10;;;;;;;12.86;64.88;96062.09;5069340;28;20198;-71
2023/08/07 02:50:35;;;;;;;3.20;1.77;;;;;;;12.88;64.63;96067.28;5068691;28;20212;-68
2023/08/07 02:53:01;;;;;;;3.00;1.67;;;;;;;12.88;64.85;96073.41;5069209;28;20178;-70
2023/08/07 02:55:26;;;;;;;4.10;1.60;;;;;;;12.90;64.72;96076.78;5069261;28;20604;-68
2023/08/07 02:57:51;;;;;;;7.10;2.40;;;;;;;12.93;64.69;96081.88;5068916;28;20268;-72
2023/08/07 03:00:17;;;;;;;3.97;1.70;;;;;;;12.86;65.08;96080.53;5068712;28;20577;-69
2023/08/07 03:02:42;;;;;;;5.47;1.60;;;;;;;13.00;63.99;96086.78;5068926;28;20636;-71
2023/08/07 03:05:08;;;;;;;2.80;1.73;;;;;;;12.99;63.69;96082.44;5069292;28;20174;-68
2023/08/07 03:07:33;;;;;;;9.03;2.03;;;;;;;12.94;62.74;96082.72;5069301;28;20212;-70
2023/08/07 03:10:00;;;;;;;4.70;2.40;;;;;;;12.97;62.65;96086.94;5068594;28;20208;-70
2023/08/07 03:12:25;;;;;;;5.60;2.17;;;;;;;12.89;63.04;96090.88;5079570;28;20294;-68
2023/08/07 03:14:51;;;;;;;7.87;1.97;;;;;;;12.92;62.27;96088.09;5088948;28;21268;-72
2023/08/07 03:17:16;;;;;;;2.67;1.70;;;;;;;12.98;62.36;96086.03;5088747;28;20193;-67
2023/08/07 03:19:43;;;;;;;4.37;1.80;;;;;;;12.89;61.67;96085.63;5088523;28;20189;-70
2023/08/07 03:22:09;;;;;;;2.90;1.80;;;;;;;12.93;62.10;96076.59;5088876;28;20324;-68
2023/08/07 03:24:34;;;;;;;4.77;1.70;;;;;;;12.84;62.00;96090.31;5088859;28;20822;-69
2023/08/07 03:26:59;;;;;;;7.40;2.13;;;;;;;12.86;62.68;96080.53;5088548;28;20200;-70
2023/08/07 03:29:25;;;;;;;3.40;1.57;;;;;;;12.89;61.91;96082.97;5088340;28;20177;-68
2023/08/07 03:31:50;;;;;;;8.60;2.27;;;;;;;12.88;62.29;96086.56;5088517;28;20205;-69
2023/08/07 03:34:16;;;;;;;9.73;2.77;;;;;;;12.89;62.56;96085.63;5088489;28;21079;-69
2023/08/07 03:36:41;;;;;;;8.23;2.50;;;;;;;12.83;62.05;96093.88;5088305;28;20242;-68
2023/08/07 03:39:06;;;;;;;5.97;1.97;;;;;;;12.83;62.21;96086.00;5088252;28;20196;-73
2023/08/07 03:41:32;;;;;;;4.53;2.30;;;;;;;13.05;61.76;96080.31;5088477;28;20919;-71
2023/08/07 03:43:57;;;;;;;3.10;1.93;;;;;;;13.02;60.79;96074.38;5088280;28;20227;-69
2023/08/07 03:46:22;;;;;;;1.80;1.47;;;;;;;12.98;60.74;96072.88;5088093;28;20229;-69
2023/08/07 03:48:48;;;;;;;3.07;1.97;;;;;;;13.00;60.86;96084.16;5087989;28;20220;-68
2023/08/07 03:51:16;;;;;;;5.33;2.70;;;;;;;13.07;60.01;96088.97;5088048;28;20263;-68
2023/08/07 03:53:41;;;;;;;2.77;1.90;;;;;;;13.03;59.92;96091.88;5088075;28;20226;-70
2023/08/07 03:56:07;;;;;;;4.10;2.07;;;;;;;12.98;59.83;96096.56;5088120;28;20412;-69
2023/08/07 03:58:32;;;;;;;4.70;2.37;;;;;;;12.98;59.69;96100.03;5088064;28;20169;-70
2023/08/07 04:00:58;;;;;;;3.67;2.20;;;;;;;12.90;60.13;96111.03;5087988;28;20252;-67
2023/08/07 04:03:23;;;;;;;4.70;1.77;;;;;;;13.06;59.84;96107.50;5088337;28;20266;-68
2023/08/07 04:05:52;;;;;;;7.23;2.20;;;;;;;13.09;59.52;96112.59;5088698;28;20174;-69
2023/08/07 04:08:17;;;;;;;10.40;2.30;;;;;;;13.19;58.81;96116.38;5090561;28;20193;-69
2023/08/07 04:10:42;;;;;;;4.43;1.70;;;;;;;13.12;58.81;96128.22;5093282;28;20458;-68
2023/08/07 04:13:08;;;;;;;7.10;1.90;;;;;;;12.98;59.30;96121.13;5077668;28;20181;-69
2023/08/07 04:15:33;;;;;;;6.90;1.70;;;;;;;13.02;59.01;96124.44;5073961;28;20529;-69
2023/08/07 04:17:59;;;;;;;2.40;1.43;;;;;;;12.98;59.20;96125.53;5071645;28;20213;-70
2023/08/07 04:20:24;;;;;;;5.70;2.10;;;;;;;12.95;59.04;96125.72;5070387;28;20249;-69
2023/08/07 04:22:49;;;;;;;2.73;1.97;;;;;;;13.09;58.74;96123.97;5067617;28;20173;-70
2023/08/07 04:25:15;;;;;;;5.57;1.97;;;;;;;13.07;58.63;96139.03;5070053;28;20170;-69
2023/08/07 04:27:40;;;;;;;4.57;2.07;;;;;;;12.97;58.67;96132.59;5070406;28;20259;-70
2023/08/07 04:30:06;;;;;;;8.90;2.73;;;;;;;12.98;58.56;96138.72;5069875;28;20205;-69
2023/08/07 04:32:31;;;;;;;4.70;2.30;;;;;;;12.98;58.69;96133.44;5070477;28;20166;-73
2023/08/07 04:34:57;;;;;;;21.60;4.70;;;;;;;13.04;58.52;96141.84;5071164;28;20257;-70
2023/08/07 04:37:23;;;;;;;4.33;2.00;;;;;;;13.01;58.61;96135.88;5069219;28;20185;-70
2023/08/07 04:39:48;;;;;;;5.50;2.10;;;;;;;13.10;58.48;96141.47;5069444;28;20170;-69
2023/08/07 04:42:13;;;;;;;5.13;2.30;;;;;;;13.09;58.36;96131.03;5068757;28;20170;-68
2023/08/07 04:44:39;;;;;;;6.50;2.60;;;;;;;12.99;58.41;96129.84;5067759;28;20254;-69
2023/08/07 04:47:05;;;;;;;5.63;2.03;;;;;;;12.89;59.33;96134.81;5063085;28;20216;-73
2023/08/07 04:49:30;;;;;;;5.63;3.00;;;;;;;12.98;58.96;96138.72;5054050;28;20210;-68
2023/08/07 04:51:56;;;;;;;6.40;1.93;;;;;;;13.00;59.38;96132.41;5065530;28;20463;-69
2023/08/07 04:54:21;;;;;;;9.67;2.63;;;;;;;12.96;59.96;96138.78;5053572;28;20582;-68
2023/08/07 04:56:46;;;;;;;4.10;2.23;;;;;;;12.93;59.40;96139.81;5053857;28;20194;-72
2023/08/07 04:59:12;;;;;;;5.00;1.90;;;;;;;12.90;59.52;96140.00;5066444;28;20178;-71
2023/08/07 05:01:38;;;;;;;7.03;2.60;;;;;;;13.03;59.79;96139.28;5065948;28;20175;-69
2023/08/07 05:04:05;;;;;;;2.80;2.07;;;;;;;13.18;59.16;96141.06;5065666;28;20314;-69
2023/08/07 05:06:30;;;;;;;11.17;2.83;;;;;;;13.14;59.23;96148.25;5053024;28;20452;-71
2023/08/07 05:08:56;;;;;;;9.00;2.10;;;;;;;13.12;59.13;96147.50;5046567;28;20906;-70
2023/08/07 05:11:21;;;;;;;7.50;2.37;;;;;;;13.18;59.72;96148.06;5046556;28;20634;-68
2023/08/07 05:13:47;;;;;;;3.87;2.00;;;;;;;13.21;59.74;96145.28;5046501;28;20186;-72
2023/08/07 05:16:12;;;;;;;6.33;2.10;;;;;;;13.29;59.85;96138.63;5046874;28;20250;-69
2023/08/07 05:18:37;;;;;;;4.10;2.00;;;;;;;13.43;59.82;96137.00;5054273;28;20182;-67
2023/08/07 05:21:03;;;;;;;5.80;3.03;;;;;;;13.66;58.85;96130.34;5066731;28;20169;-68
2023/08/07 05:23:28;;;;;;;5.03;3.30;;;;;;;14.24;57.71;96134.66;5066981;28;20203;-69
2023/08/07 05:25:53;;;;;;;2.97;2.03;;;;;;;14.29;57.13;96139.63;5066923;28;20204;-68
2023/08/07 05:28:19;;;;;;;4.27;1.70;;;;;;;14.35;57.10;96148.03;5068323;28;20202;-72
2023/08/07 05:30:44;;;;;;;4.83;1.83;;;;;;;14.03;57.63;96152.69;5069740;28;20205;-68
2023/08/07 05:33:10;;;;;;;7.40;1.97;;;;;;;14.14;56.97;96155.50;5067299;28;20231;-70
2023/08/07 05:35:37;;;;;;;5.20;2.40;;;;;;;14.29;56.99;96145.78;5067177;28;21023;-68
2023/08/07 05:38:03;;;;;;;11.47;2.80;;;;;;;14.22;56.92;96160.31;5057837;28;20674;-69
2023/08/07 05:40:29;;;;;;;13.07;3.00;;;;;;;14.20;57.36;96162.19;5061705;28;20425;-68
2023/08/07 05:42:55;;;;;;;8.10;2.20;;;;;;;14.40;56.16;96163.56;5059989;28;20178;-67
2023/08/07 05:45:20;;;;;;;8.83;3.00;;;;;;;14.26;57.12;96172.34;5051277;28;20413;-68
2023/08/07 05:47:46;;;;;;;4.10;1.80;;;;;;;14.28;57.04;96170.47;5064038;28;20364;-71
2023/08/07 05:50:11;;;;;;;3.60;2.00;;;;;;;14.21;57.73;96179.72;5053266;28;20672;-71
2023/08/07 05:52:36;;;;;;;5.33;1.97;;;;;;;14.34;57.11;96170.09;5059288;28;20171;-74
2023/08/07 05:55:03;;;;;;;2.37;1.70;;;;;;;14.47;56.92;96175.44;5058772;28;20200;-73
2023/08/07 05:57:28;;;;;;;6.50;2.20;;;;;;;14.48;57.16;96182.44;5061300;28;20209;-68
2023/08/07 05:59:54;;;;;;;6.43;2.37;;;;;;;14.49;56.88;96176.19;5073100;28;20411;-67
2023/08/07 06:02:19;;;;;;;7.10;2.07;;;;;;;14.47;57.06;96185.16;5059455;28;20658;-69
2023/08/07 06:04:45;;;;;;;3.87;2.30;;;;;;;14.45;57.28;96181.78;5080885;28;20177;-70
2023/08/07 06:07:10;;;;;;;8.23;2.40;;;;;;;14.63;56.87;96183.28;5072494;28;20194;-68
2023/08/07 06:09:36;;;;;;;7.93;4.47;;;;;;;14.72;56.82;96182.72;5073089;28;20197;-72
2023/08/07 06:12:01;;;;;;;4.73;3.00;;;;;;;14.94;55.93;96192.72;5067206;28;20237;-68
2023/08/07 06:14:28;;;;;;;3.73;2.20;;;;;;;15.16;55.86;96193.97;5068498;28;20176;-72
2023/08/07 06:16:54;;;;;;;9.30;2.50;;;;;;;15.01;56.00;96201.97;5068303;28;20217;-73
2023/08/07 06:19:22;;;;;;;4.53;2.23;;;;;;;15.09;55.25;96197.97;5064922;28;20482;-69
2023/08/07 06:21:47;;;;;;;12.53;2.87;;;;;;;14.94;55.62;96205.09;5066460;28;20170;-67
2023/08/07 06:24:13;;;;;;;4.53;1.80;;;;;;;14.97;55.76;96205.72;5066679;28;20427;-73
2023/08/07 06:26:38;;;;;;;8.47;2.07;;;;;;;14.97;56.14;96208.38;5074070;28;20596;-71
2023/08/07 06:29:04;;;;;;;11.60;2.60;;;;;;;14.90;56.06;96207.06;5053196;28;20208;-71
2023/08/07 06:31:30;;;;;;;8.93;2.33;;;;;;;14.95;56.15;96204.13;5067005;28;20194;-72
2023/08/07 06:33:56;;;;;;;2.90;1.50;;;;;;;14.86;56.52;96200.31;5076091;28;20174;-71
2023/08/07 06:36:21;;;;;;;27.77;4.60;;;;;;;14.98;55.04;96202.16;5068776;28;20420;-73
2023/08/07 06:38:46;;;;;;;3.87;2.00;;;;;;;14.87;55.15;96202.00;5058950;28;20186;-74
2023/08/07 06:41:12;;;;;;;3.00;2.13;;;;;;;14.93;54.33;96198.97;5064266;28;20182;-74
2023/08/07 06:43:38;;;;;;;7.30;3.17;;;;;;;15.04;52.89;96198.25;5056167;28;20170;-71
2023/08/07 06:46:03;;;;;;;18.77;2.50;;;;;;;14.89;54.56;96205.41;5056843;28;20185;-73
2023/08/07 06:48:28;;;;;;;5.30;2.30;;;;;;;14.84;55.57;96201.38;5061608;28;20174;-70
2023/08/07 06:50:54;;;;;;;3.83;1.97;;;;;;;14.85;55.15;96201.25;5066741;28;20305;-70
2023/08/07 06:53:20;;;;;;;9.70;3.10;;;;;;;14.64;55.73;96207.91;5065006;28;20204;-73
2023/08/07 06:55:45;;;;;;;5.53;2.07;;;;;;;14.81;54.98;96207.66;5062821;28;20236;-73
2023/08/07 06:58:11;;;;;;;9.33;2.07;;;;;;;14.58;55.99;96225.00;5069506;28;20194;-72
2023/08/07 07:00:37;;;;;;;2.43;2.00;;;;;;;14.63;56.40;96222.06;5060534;28;20183;-72
2023/08/07 07:03:03;;;;;;;3.47;2.30;;;;;;;14.59;56.75;96222.22;5065251;28;20279;-71
2023/08/07 07:05:30;;;;;;;4.20;2.13;;;;;;;14.66;57.06;96214.78;5066043;28;20413;-71
2023/08/07 07:07:55;;;;;;;5.93;2.13;;;;;;;14.87;55.87;96220.50;5066518;28;20448;-74
2023/08/07 07:10:21;;;;;;;2.93;2.63;;;;;;;15.04;55.10;96225.53;5060930;28;20998;-72
2023/08/07 07:12:46;;;;;;;2.70;1.77;;;;;;;14.95;55.36;96220.88;5067199;28;20178;-72
2023/08/07 07:15:12;;;;;;;5.77;2.00;;;;;;;14.88;55.39;96226.63;5067975;28;20181;-73
2023/08/07 07:17:38;;;;;;;3.20;1.80;;;;;;;15.07;55.23;96223.66;5081094;28;20322;-73
2023/08/07 07:20:04;;;;;;;4.43;1.90;;;;;;;14.99;54.59;96219.69;5079050;28;20394;-72
2023/08/07 07:22:29;;;;;;;4.63;2.30;;;;;;;15.02;54.56;96231.88;5069559;28;20174;-73
2023/08/07 07:24:55;;;;;;;3.90;2.00;;;;;;;15.19;54.42;96228.16;5076988;28;20173;-72
2023/08/07 07:27:22;;;;;;;3.43;1.97;;;;;;;15.09;54.43;96238.44;5072063;28;20198;-71
2023/08/07 07:29:47;;;;;;;5.30;2.10;;;;;;;14.93;54.30;96235.97;5066248;28;20179;-72
2023/08/07 07:32:13;;;;;;;1.90;1.40;;;;;;;15.06;54.34;96251.03;5054377;28;20428;-72
2023/08/07 07:34:38;;;;;;;3.90;2.47;;;;;;;15.01;54.59;96244.25;5057977;28;20209;-72
2023/08/07 07:37:04;;;;;;;4.53;2.13;;;;;;;15.00;54.27;96242.56;5051000;28;20359;-71
2023/08/07 07:39:30;;;;;;;7.20;2.10;;;;;;;15.10;54.17;96241.97;5071603;28;20337;-73
2023/08/07 07:41:55;;;;;;;2.87;2.10;;;;;;;15.28;54.08;96238.09;5058021;28;20257;-71
2023/08/07 07:44:20;;;;;;;5.37;2.40;;;;;;;15.07;54.21;96237.72;5069594;28;20225;-72
2023/08/07 07:46:46;;;;;;;5.50;2.73;;;;;;;15.31;53.93;96240.56;5058013;28;20749;-71
2023/08/07 07:49:11;;;;;;;3.37;1.90;;;;;;;15.80;53.24;96245.28;5073663;28;20268;-72
2023/08/07 07:51:37;;;;;;;14.80;2.70;;;;;;;16.17;51.26;96242.78;5060740;28;20203;-73
2023/08/07 07:54:03;;;;;;;3.43;2.00;;;;;;;16.11;50.62;96232.63;5068806;28;21013;-71
2023/08/07 07:56:28;;;;;;;5.57;1.90;;;;;;;16.22;50.48;96247.75;5053476;28;20206;-72
2023/08/07 07:58:54;;;;;;;5.67;1.90;;;;;;;16.02;51.28;96249.97;5065869;28;20250;-70
2023/08/07 08:01:19;;;;;;;5.13;1.80;;;;;;;15.93;52.04;96240.00;5061770;28;20250;-71
2023/08/07 08:03:44;;;;;;;4.90;2.30;;;;;;;15.99;52.53;96244.91;5060307;28;20270;-73
2023/08/07 08:06:13;;;;;;;8.13;2.70;;;;;;;16.05;51.87;96249.75;5066893;28;20178;-71
2023/08/07 08:08:39;;;;;;;11.07;2.63;;;;;;;15.92;51.47;96248.03;5070987;28;20278;-71
2023/08/07 08:11:04;;;;;;;7.30;2.10;;;;;;;16.11;51.19;96252.94;5066330;28;20595;-71
2023/08/07 08:13:30;;;;;;;3.13;2.30;;;;;;;16.49;50.61;96253.78;5063672;28;20697;-72
2023/08/07 08:15:55;;;;;;;3.70;1.90;;;;;;;16.97;49.74;96261.06;5050040;28;20166;-72
2023/08/07 08:18:20;;;;;;;6.47;2.70;;;;;;;16.91;49.82;96259.69;5067355;28;20237;-72
2023/08/07 08:20:46;;;;;;;3.80;2.63;;;;;;;16.91;49.29;96254.41;5059176;28;20270;-70
2023/08/07 08:23:11;;;;;;;7.03;2.23;;;;;;;17.03;48.54;96257.97;5069992;28;20818;-73
2023/08/07 08:25:37;;;;;;;4.07;2.13;;;;;;;17.05;48.26;96265.78;5056268;28;20278;-73
2023/08/07 08:28:02;;;;;;;5.83;2.73;;;;;;;16.99;48.27;96253.84;5058330;28;20280;-72
2023/08/07 08:30:28;;;;;;;4.87;2.20;;;;;;;16.89;48.53;96256.31;5061371;28;20740;-74
2023/08/07 08:32:53;;;;;;;2.60;1.70;;;;;;;17.13;48.05;96253.69;5065563;28;20183;-73
2023/08/07 08:35:19;;;;;;;3.87;2.33;;;;;;;17.03;48.62;96252.66;5059754;28;20178;-71
2023/08/07 08:37:45;;;;;;;2.80;2.27;;;;;;;17.00;48.71;96254.69;5064839;28;20232;-73
2023/08/07 08:40:12;;;;;;;4.90;2.33;;;;;;;17.11;48.37;96250.28;5057552;28;20178;-72
2023/08/07 08:42:40;;;;;;;8.90;2.40;;;;;;;17.27;47.50;96252.69;5068393;28;20568;-73
2023/08/07 08:45:11;;;;;;;8.83;1.80;;;;;;;17.14;47.75;96244.75;5057190;28;20987;-72
2023/08/07 08:47:37;;;;;;;9.60;2.70;;;;;;;17.12;48.33;96254.63;5055860;28;20494;-72
2023/08/07 08:50:07;;;;;;;3.47;2.37;;;;;;;17.06;47.24;96254.25;5060225;28;20540;-72
2023/08/07 08:52:35;;;;;;;3.20;2.50;;;;;;;17.03;46.67;96259.75;5069900;28;20427;-73
2023/08/07 08:55:01;;;;;;;11.90;2.40;;;;;;;17.29;45.90;96252.56;5055416;28;20478;-73
2023/08/07 08:57:27;;;;;;;5.40;1.70;;;;;;;17.33;45.99;96246.91;5051576;28;20463;-71
2023/08/07 08:59:53;;;;;;;7.00;2.03;;;;;;;17.33;45.76;96243.44;5058447;28;20442;-72
2023/08/07 09:02:19;;;;;;;5.60;2.07;;;;;;;16.99;46.67;96256.50;5056893;28;21083;-74
2023/08/07 09:04:45;;;;;;;4.43;1.90;;;;;;;16.99;46.46;96253.84;5071700;28;20189;-69
2023/08/07 09:07:13;;;;;;;5.53;2.20;;;;;;;17.11;47.05;96250.28;5065718;28;20204;-72
2023/08/07 09:09:40;;;;;;;7.33;3.10;;;;;;;17.18;47.03;96255.16;5074314;28;20499;-70
2023/08/07 09:12:08;;;;;;;8.97;4.70;;;;;;;17.28;46.44;96242.91;5057499;28;20467;-72
2023/08/07 09:14:37;;;;;;;7.43;3.40;;;;;;;17.35;44.88;96242.34;5057790;28;20422;-72
2023/08/07 09:17:03;;;;;;;5.50;2.80;;;;;;;17.34;44.55;96250.44;5056977;28;20495;-72
2023/08/07 09:19:28;;;;;;;3.10;2.40;;;;;;;17.31;43.49;96234.72;5063173;28;20445;-70
2023/08/07 09:21:54;;;;;;;4.00;1.90;;;;;;;17.33;43.20;96232.81;5070276;28;20413;-71
2023/08/07 09:24:21;;;;;;;14.40;5.90;;;;;;;17.48;43.28;96238.78;5052843;28;20189;-71
2023/08/07 09:26:47;;;;;;;5.30;2.27;;;;;;;17.19;43.04;96243.59;5064593;28;20284;-75
2023/08/07 09:29:13;;;;;;;11.90;3.73;;;;;;;17.31;42.70;96242.69;5061193;28;20429;-73
2023/08/07 09:31:39;;;;;;;5.23;2.10;;;;;;;17.39;42.93;96235.03;5068598;28;20221;-71
2023/08/07 09:34:04;;;;;;;9.20;2.10;;;;;;;17.38;43.27;96227.16;5061879;28;20660;-71
2023/08/07 09:36:31;;;;;;;2.63;1.80;;;;;;;17.42;42.68;96233.94;5060081;28;20205;-72
2023/08/07 09:39:01;;;;;;;7.20;2.20;;;;;;;17.48;42.31;96233.47;5051484;28;20182;-73
2023/08/07 09:41:28;;;;;;;4.00;1.90;;;;;;;17.50;41.18;96232.44;5059764;28;20424;-75
2023/08/07 09:43:54;;;;;;;8.50;2.60;;;;;;;17.56;41.04;96237.25;5071268;28;20432;-72
2023/08/07 09:46:19;;;;;;;5.83;2.23;;;;;;;17.52;41.72;96238.44;5063477;28;20490;-72
2023/08/07 09:48:44;;;;;;;6.00;1.80;;;;;;;17.43;42.57;96233.81;5059089;28;20300;-72
2023/08/07 09:51:10;;;;;;;2.30;1.50;;;;;;;17.46;43.00;96236.25;5066399;28;20198;-74
2023/08/07 09:53:37;;;;;;;2.87;2.00;;;;;;;17.32;42.86;96237.28;5063694;28;20186;-71
2023/08/07 09:56:02;;;;;;;6.03;2.00;;;;;;;17.35;43.08;96252.97;5066403;28;20192;-75
2023/08/07 09:58:28;;;;;;;6.70;2.30;;;;;;;17.43;42.48;96249.75;5067235;28;20444;-72
2023/08/07 10:00:55;;;;;;;3.57;1.67;;;;;;;17.49;40.92;96237.84;5070831;28;20199;-71
2023/08/07 10:03:21;;;;;;;7.50;1.90;;;;;;;17.46;40.79;96249.53;5050521;28;20429;-72
2023/08/07 10:05:47;;;;;;;8.53;1.70;;;;;;;17.67;40.19;96240.91;5057627;28;20456;-70
2023/08/07 10:08:12;;;;;;;2.60;1.40;;;;;;;17.69;40.38;96249.63;5048582;28;20518;-72
2023/08/07 10:10:38;;;;;;;3.13;2.03;;;;;;;17.82;39.89;96239.81;5065236;28;20229;-72
2023/08/07 10:13:05;;;;;;;6.33;1.90;;;;;;;17.86;39.24;96241.28;5067086;28;20182;-71
2023/08/07 10:15:37;;;;;;;6.43;2.03;;;;;;;17.98;39.32;96245.66;5077465;28;20523;-71
2023/08/07 10:18:02;;;;;;;2.90;2.00;;;;;;;18.21;39.56;96243.03;5092000;28;20521;-73
2023/08/07 10:20:29;;;;;;;4.87;2.30;;;;;;;18.31;38.68;96241.38;5078855;28;20934;-71
2023/08/07 10:23:00;;;;;;;3.40;2.27;;;;;;;18.30;38.59;96252.94;5068696;28;20171;-73
2023/08/07 10:25:28;;;;;;;3.33;1.60;;;;;;;18.34;38.86;96266.84;5084273;28;20416;-71
2023/08/07 10:27:56;;;;;;;1.80;1.30;;;;;;;18.34;39.70;96257.06;5070980;28;20475;-71
2023/08/07 10:30:24;;;;;;;3.10;1.97;;;;;;;18.38;39.24;96269.16;5082221;28;20983;-72
2023/08/07 10:32:50;;;;;;;3.60;2.27;;;;;;;18.47;38.44;96267.56;5068204;28;20412;-74
2023/08/07 10:35:33;;;;;;;5.10;2.27;;;;;;;18.26;39.04;96259.47;5078906;28;20960;-72
2023/08/07 10:38:09;;;;;;;5.93;2.17;;;;;;;18.32;38.81;96269.63;5085388;28;20482;-72
2023/08/07 10:40:56;;;;;;;9.63;2.53;;;;;;;18.16;38.01;96261.13;5087006;28;20424;-73
2023/08/07 10:43:24;;;;;;;4.40;1.80;;;;;;;18.32;38.50;96261.66;5078139;28;20851;-72
2023/08/07 10:45:49;;;;;;;5.03;2.13;;;;;;;18.54;38.38;96259.97;5070997;28;20424;-74
2023/08/07 10:48:18;;;;;;;3.57;3.27;;;;;;;18.46;37.90;96262.41;5069828;28;20943;-72
2023/08/07 10:51:04;;;;;;;7.80;2.10;;;;;;;18.44;37.38;96265.16;5073480;28;20206;-73
2023/08/07 10:53:32;;;;;;;2.40;1.63;;;;;;;18.25;38.31;96251.63;5081066;28;21030;-74
2023/08/07 10:56:02;;;;;;;2.97;1.60;;;;;;;18.73;38.26;96260.25;5080348;28;20437;-74
2023/08/07 10:58:33;;;;;;;2.80;1.80;;;;;;;18.70;39.36;96247.19;5063326;28;20871;-72
2023/08/07 11:01:31;;;;;;;9.97;3.30;;;;;;;18.90;39.49;96252.75;5065715;28;20474;-72
2023/08/07 11:04:05;;;;;;;2.53;1.83;;;;;;;18.91;38.34;96267.75;5051083;28;20445;-73
2023/08/07 11:06:32;;;;;;;2.50;1.70;;;;;;;18.78;38.77;96260.75;5056009;28;20544;-74
2023/08/07 11:09:06;;;;;;;4.20;1.50;;;;;;;18.75;38.47;96263.59;5067181;28;20535;-72
2023/08/07 11:11:40;;;;;;;2.00;1.70;;;;;;;18.70;38.49;96265.78;5066801;28;20480;-72
2023/08/07 11:14:16;;;;;;;3.87;1.70;;;;;;;18.72;38.24;96269.19;5057160;28;20436;-72
2023/08/07 11:16:43;;;;;;;10.57;2.07;;;;;;;18.66;38.60;96261.69;5053818;28;20743;-72
2023/08/07 11:19:09;;;;;;;3.33;2.00;;;;;;;18.83;38.71;96257.75;5059557;28;20593;-73
2023/08/07 11:21:37;;;;;;;3.80;1.57;;;;;;;18.88;37.50;96265.34;5056767;28;20448;-72
2023/08/07 11:24:03;;;;;;;3.00;1.57;;;;;;;19.11;37.98;96258.19;5064022;28;20923;-72
2023/08/07 11:26:28;;;;;;;6.47;2.77;;;;;;;19.08;37.35;96267.25;5053244;28;20441;-72
2023/08/07 11:28:55;;;;;;;5.40;2.20;;;;;;;18.76;36.87;96267.13;5061450;28;20182;-73
2023/08/07 11:31:24;;;;;;;4.70;1.87;;;;;;;18.75;36.92;96273.41;5069068;28;20237;-72